Hovedside
METAR-TAF:

METAR-TAF

Lufthavner :

Palanga, Litauen

Palanga internasjonale lufthavn

breddegrad: 55-55-12N, lengdegrad: 021-03E, høyde over havet: 10 m

Gjeldene værobservasjon

Denne rapporten ble laget for 29 minutter siden, klokken 18:50 UTC
Vind 6 kt fra Sør-sørvest
Temperatur 13°C
Luftfuktighet 67%
Trykk 1021 hPa
Sikt 10 km eller mer
ingen skyer under 1500 m og ingen bygeskyer

METAR: EYPA 271850Z 20006KT CAVOK 13/07 Q1021

Tid: 22:19 (19:19 UTC)

Varsel

Denne rapporten ble laget for 2 timer og 19 minutter siden, klokken 17:00 UTC
Varsel gyldig fra 27. klokken 18 UTC til 28. klokken 18 UTC
Vind 8 kt fra Sørvest
Sikt: 9000 m
Midlertidig
fra 27. klokken 21 UTC til 28. klokken 03 UTC
Spredte skyer i en høyde av 3000 ft

TAF: EYPA 271700Z 2718/2818 22008KT 9000 NSC TEMPO 2721/2803 SCT030

Værobservasjoner og værvarsel for over 4000 flyplasser (METAR- og TAF-rapporter).

Tilgjengelige stasjoner er representert av de røde og gule prikkene på kartet.

Hold musepekeren over prikken for å se navnet på stasjonen.

Klikk så for å se værobservasjoner og -varsler.

For å forandre kartet kan du klikke på den grønne knappen med svart kryss for å zoome inn, på den grønne knappen med strek for å zoome ut, eller på de grønne pilene for å se tilstøtende kart.


METAR-TAF: